createdAt,value
2019-06-27T00:01:40.961Z,16.50
2019-06-27T00:06:43.995Z,15.90
2019-06-27T00:09:16.676Z,15.20
2019-06-27T00:11:48.857Z,15.70
2019-06-27T00:14:20.736Z,15.90
2019-06-27T00:16:54.414Z,14.85
2019-06-27T00:19:26.420Z,15.48
2019-06-27T00:21:58.448Z,16.70
2019-06-27T00:24:30.385Z,15.20
2019-06-27T00:27:02.304Z,15.00
2019-06-27T00:32:05.072Z,15.72
2019-06-27T00:34:37.137Z,15.03
2019-06-27T00:37:09.152Z,15.75
2019-06-27T00:39:41.173Z,15.50
2019-06-27T00:44:43.894Z,16.50
2019-06-27T00:49:46.917Z,16.80
2019-06-27T00:52:18.950Z,16.90
2019-06-27T00:54:51.193Z,16.00
2019-06-27T00:57:23.246Z,16.82
2019-06-27T00:59:55.404Z,16.50
2019-06-27T01:02:27.429Z,16.37
2019-06-27T01:04:59.409Z,16.25
2019-06-27T01:07:31.528Z,15.95
2019-06-27T01:10:04.777Z,16.75
2019-06-27T01:12:36.950Z,16.27
2019-06-27T01:15:10.440Z,16.25
2019-06-27T01:17:42.373Z,17.20
2019-06-27T01:20:15.379Z,16.95
2019-06-27T01:22:47.491Z,16.00
2019-06-27T01:25:19.609Z,18.70
2019-06-27T01:27:51.753Z,17.30
2019-06-27T01:30:24.133Z,17.97
2019-06-27T01:35:27.206Z,17.67
2019-06-27T01:37:59.226Z,18.52
2019-06-27T01:40:31.287Z,18.75
2019-06-27T01:43:03.355Z,19.03
2019-06-27T01:45:52.844Z,16.70
2019-06-27T01:48:24.768Z,17.67
2019-06-27T01:50:56.821Z,18.57
2019-06-27T01:53:28.890Z,17.32
2019-06-27T01:56:00.982Z,16.62
2019-06-27T01:58:33.134Z,17.67
2019-06-27T02:01:05.228Z,17.95
2019-06-27T02:03:37.342Z,18.40
2019-06-27T02:06:09.325Z,17.23
2019-06-27T02:08:41.365Z,18.40
2019-06-27T02:11:13.335Z,17.75
2019-06-27T02:13:45.461Z,18.20
2019-06-27T02:16:17.497Z,17.70
2019-06-27T02:18:49.461Z,18.20
2019-06-27T02:21:22.710Z,17.85
2019-06-27T02:23:54.716Z,18.23
2019-06-27T02:26:26.782Z,17.55
2019-06-27T02:28:58.903Z,18.55
2019-06-27T02:31:43.062Z,17.82
2019-06-27T02:34:15.135Z,16.07
2019-06-27T02:36:47.278Z,16.87
2019-06-27T02:39:19.470Z,19.00
2019-06-27T02:41:51.594Z,18.02
2019-06-27T02:44:23.668Z,17.90
2019-06-27T02:46:55.812Z,18.10
2019-06-27T02:49:27.847Z,18.10
2019-06-27T02:52:00.006Z,17.10
2019-06-27T02:54:32.132Z,17.70
2019-06-27T02:57:04.265Z,17.32
2019-06-27T02:59:36.272Z,16.02
2019-06-27T03:02:08.383Z,18.20
2019-06-27T03:04:40.831Z,17.40
2019-06-27T03:07:12.955Z,17.32
2019-06-27T03:09:45.104Z,18.95
2019-06-27T03:12:17.140Z,17.48
2019-06-27T03:14:49.067Z,16.00
2019-06-27T03:17:21.086Z,16.70
2019-06-27T03:19:53.356Z,17.62
2019-06-27T03:22:25.484Z,17.20
2019-06-27T03:24:57.400Z,18.62
2019-06-27T03:27:29.530Z,17.50
2019-06-27T03:30:01.758Z,17.55
2019-06-27T03:32:33.940Z,18.65
2019-06-27T03:35:06.106Z,17.32
2019-06-27T03:37:38.175Z,17.30
2019-06-27T03:40:11.032Z,16.80
2019-06-27T03:42:43.277Z,17.75
2019-06-27T03:45:16.400Z,18.05
2019-06-27T03:47:48.731Z,18.12
2019-06-27T03:50:21.521Z,18.98
2019-06-27T04:53:23.169Z,16.77
2019-06-27T04:55:55.243Z,18.07
2019-06-27T04:58:27.288Z,18.63
2019-06-27T05:01:00.313Z,17.13
2019-06-27T05:03:32.256Z,17.53
2019-06-27T05:06:04.255Z,17.07
2019-06-27T05:08:36.257Z,15.23
2019-06-27T05:11:08.317Z,15.20
2019-06-27T05:16:11.358Z,14.90
2019-06-27T05:18:43.435Z,15.40
2019-06-27T05:21:15.454Z,15.90
2019-06-27T05:23:47.329Z,15.50
2019-06-27T05:26:20.435Z,15.70
2019-06-27T05:28:52.289Z,16.00
2019-06-27T05:31:24.519Z,16.50
2019-06-27T05:33:56.420Z,15.67
2019-06-27T05:36:28.343Z,16.60
2019-06-27T05:39:00.335Z,16.90
2019-06-27T05:41:32.394Z,16.67
2019-06-27T05:44:04.432Z,14.67
2019-06-27T05:46:36.386Z,16.30
2019-06-27T05:49:08.546Z,15.57
2019-06-27T05:51:40.962Z,16.30
2019-06-27T05:54:12.985Z,16.60
2019-06-27T05:56:44.961Z,16.33
2019-06-27T05:59:18.061Z,17.00
2019-06-27T06:01:50.124Z,17.53
2019-06-27T06:04:24.082Z,15.80
2019-06-27T06:06:55.877Z,16.90
2019-06-27T06:09:28.024Z,15.80
2019-06-27T06:11:59.980Z,16.40
2019-06-27T06:14:31.978Z,16.25
2019-06-27T06:17:04.274Z,16.40
2019-06-27T06:19:36.201Z,15.65
2019-06-27T06:22:09.195Z,15.85
2019-06-27T06:24:41.123Z,15.33
2019-06-27T06:27:13.180Z,14.47
2019-06-27T06:29:45.160Z,17.00
2019-06-27T06:32:17.250Z,17.90
2019-06-27T06:34:49.396Z,16.70
2019-06-27T06:37:21.503Z,16.70
2019-06-27T06:39:53.585Z,15.90
2019-06-27T06:42:25.567Z,17.20
2019-06-27T06:44:57.758Z,17.30
2019-06-27T06:47:30.142Z,16.33
2019-06-27T06:50:02.428Z,16.63
2019-06-27T06:52:34.535Z,15.10
2019-06-27T06:55:06.596Z,17.03
2019-06-27T06:57:38.670Z,16.70
2019-06-27T07:00:11.580Z,17.53
2019-06-27T07:02:43.687Z,17.27
2019-06-27T07:05:15.728Z,18.20
2019-06-27T07:07:47.770Z,17.63
2019-06-27T07:10:20.675Z,16.57
2019-06-27T07:12:52.809Z,17.10
2019-06-27T07:15:24.846Z,16.27
2019-06-27T07:17:56.878Z,17.10
2019-06-27T07:20:28.973Z,18.50
2019-06-27T07:23:00.926Z,16.30
2019-06-27T07:25:33.121Z,17.00
2019-06-27T07:28:05.207Z,15.60
2019-06-27T07:30:37.246Z,16.70
2019-06-27T07:33:10.430Z,16.57
2019-06-27T07:35:42.573Z,15.53
2019-06-27T07:38:14.726Z,16.67
2019-06-27T07:40:46.833Z,16.27
2019-06-27T07:43:18.876Z,17.40
2019-06-27T07:45:50.827Z,17.10
2019-06-27T07:48:23.043Z,15.93
2019-06-27T07:50:55.130Z,16.83
2019-06-27T07:53:27.222Z,16.53
2019-06-27T07:55:59.310Z,16.23
2019-06-27T07:58:31.373Z,16.57
2019-06-27T08:01:03.493Z,15.00
2019-06-27T08:03:35.563Z,16.50
2019-06-27T08:06:07.904Z,16.03
2019-06-27T08:08:39.985Z,14.87
2019-06-27T08:11:12.084Z,17.77
2019-06-27T08:13:44.114Z,16.53
2019-06-27T08:16:16.491Z,16.83
2019-06-27T08:18:48.486Z,16.40
2019-06-27T08:21:20.477Z,16.50
2019-06-27T08:23:52.452Z,16.30
2019-06-27T08:26:24.379Z,16.47
2019-06-27T08:28:56.376Z,15.97
2019-06-27T08:31:28.537Z,17.10
2019-06-27T08:34:00.528Z,15.87
2019-06-27T08:36:32.587Z,16.80
2019-06-27T08:39:06.467Z,17.47
2019-06-27T08:41:38.519Z,17.07
2019-06-27T08:44:10.528Z,17.87
2019-06-27T08:46:42.595Z,16.70
2019-06-27T08:49:14.608Z,17.30
2019-06-27T08:51:46.481Z,16.43
2019-06-27T08:54:18.661Z,15.80
2019-06-27T08:56:50.751Z,16.93
2019-06-27T08:59:22.856Z,17.63
2019-06-27T09:02:07.931Z,16.63
2019-06-27T09:04:28.576Z,15.83
2019-06-27T09:07:00.812Z,16.53
2019-06-27T09:09:32.963Z,15.67
2019-06-27T09:12:05.581Z,18.43
2019-06-27T09:14:38.059Z,16.77
2019-06-27T09:17:10.695Z,16.40
2019-06-27T09:19:42.872Z,15.40
2019-06-27T09:22:14.860Z,15.93
2019-06-27T09:24:47.325Z,15.57
2019-06-27T09:27:19.353Z,15.80
2019-06-27T09:29:51.318Z,14.57
2019-06-27T09:32:25.977Z,15.10
2019-06-27T09:34:58.168Z,14.73
2019-06-27T09:37:30.444Z,16.07
2019-06-27T09:40:02.495Z,14.97
2019-06-27T09:42:34.584Z,13.97
2019-06-27T09:45:06.997Z,15.33
2019-06-27T09:47:39.074Z,15.87
2019-06-27T09:50:11.626Z,14.90
2019-06-27T09:52:43.779Z,15.13
2019-06-27T09:55:16.260Z,14.20
2019-06-27T09:57:48.313Z,15.50
2019-06-27T10:00:21.032Z,15.40
2019-06-27T10:02:53.156Z,14.30
2019-06-27T10:05:25.377Z,15.97
2019-06-27T10:07:57.310Z,15.20
2019-06-27T10:10:29.305Z,15.50
2019-06-27T10:13:01.638Z,15.90
2019-06-27T10:15:33.817Z,14.00
2019-06-27T10:18:05.937Z,15.27
2019-06-27T10:20:38.633Z,15.30
2019-06-27T10:23:10.840Z,14.40
2019-06-27T10:25:42.780Z,14.27
2019-06-27T10:28:14.853Z,15.20
2019-06-27T10:30:49.314Z,14.10
2019-06-27T10:33:20.656Z,14.50
2019-06-27T10:35:52.668Z,13.63
2019-06-27T10:38:24.571Z,14.70
2019-06-27T10:40:56.682Z,13.73
2019-06-27T10:43:28.659Z,14.50
2019-06-27T10:46:00.649Z,13.40
2019-06-27T10:48:32.620Z,14.27
2019-06-27T10:51:04.730Z,13.93
2019-06-27T10:53:36.822Z,13.70
2019-06-27T10:56:08.768Z,12.90
2019-06-27T10:58:40.880Z,12.13
2019-06-27T11:01:12.780Z,11.10
2019-06-27T11:03:44.977Z,11.20
2019-06-27T11:06:16.857Z,11.77
2019-06-27T11:08:48.866Z,10.40
2019-06-27T11:11:20.971Z,11.87
2019-06-27T11:13:58.710Z,11.77
2019-06-27T11:16:26.958Z,11.60
2019-06-27T11:18:59.071Z,11.93
2019-06-27T11:21:31.137Z,11.30
2019-06-27T11:24:04.872Z,11.20
2019-06-27T11:26:36.966Z,11.63
2019-06-27T11:29:09.063Z,10.90
2019-06-27T11:31:41.284Z,11.63
2019-06-27T11:34:13.659Z,11.40
2019-06-27T11:36:46.726Z,10.67
2019-06-27T11:39:18.930Z,12.47
2019-06-27T11:41:50.912Z,11.50
2019-06-27T11:44:23.010Z,10.33
2019-06-27T11:46:55.081Z,9.90
2019-06-27T11:49:27.200Z,11.97
2019-06-27T11:51:59.361Z,12.00
2019-06-27T11:54:31.316Z,12.13
2019-06-27T11:57:03.303Z,10.20
2019-06-27T11:59:35.358Z,10.73
2019-06-27T12:02:07.885Z,10.23
2019-06-27T12:04:40.054Z,20.33
2019-06-27T12:07:12.059Z,10.50
2019-06-27T12:09:44.161Z,10.27
2019-06-27T12:12:16.102Z,9.83
2019-06-27T12:14:48.082Z,9.37
2019-06-27T12:17:19.973Z,9.27
2019-06-27T12:19:52.064Z,9.40
2019-06-27T12:22:24.169Z,8.67
2019-06-27T12:24:56.195Z,8.60
2019-06-27T12:27:28.309Z,8.53
2019-06-27T12:30:00.291Z,8.13
2019-06-27T12:32:32.138Z,8.40
2019-06-27T12:35:05.364Z,9.67
2019-06-27T12:37:39.811Z,8.67
2019-06-27T12:40:13.232Z,8.97
2019-06-27T12:42:45.327Z,8.73
2019-06-27T12:45:18.151Z,9.60
2019-06-27T12:47:50.462Z,8.37
2019-06-27T12:50:22.570Z,9.47
2019-06-27T12:52:54.599Z,8.53
2019-06-27T12:55:26.642Z,9.20
2019-06-27T12:57:58.847Z,8.83
2019-06-27T13:00:30.879Z,8.60
2019-06-27T13:03:05.177Z,8.60
2019-06-27T13:05:37.370Z,9.57
2019-06-27T13:08:09.323Z,9.50
2019-06-27T13:10:41.371Z,9.47
2019-06-27T13:13:13.417Z,9.97
2019-06-27T13:15:45.432Z,16.00
2019-06-27T13:18:17.418Z,10.47
2019-06-27T13:20:57.955Z,11.23
2019-06-27T13:23:23.161Z,10.70
2019-06-27T13:25:57.350Z,11.70
2019-06-27T13:28:29.331Z,11.10
2019-06-27T13:31:01.441Z,11.40
2019-06-27T13:33:33.455Z,12.03
2019-06-27T13:36:05.513Z,11.93
2019-06-27T13:38:37.613Z,11.53
2019-06-27T13:41:09.773Z,11.67
2019-06-27T13:43:42.168Z,12.20
2019-06-27T13:46:14.129Z,14.23
2019-06-27T13:48:45.998Z,13.47
2019-06-27T13:51:17.989Z,14.73
2019-06-27T13:53:50.117Z,13.97
2019-06-27T13:56:22.266Z,14.03
2019-06-27T13:58:54.509Z,14.63
2019-06-27T14:01:26.575Z,14.30
2019-06-27T14:03:58.593Z,13.63
2019-06-27T14:06:30.795Z,13.80
2019-06-27T14:09:03.355Z,14.10
2019-06-27T14:11:37.698Z,12.67
2019-06-27T14:14:11.492Z,14.33
2019-06-27T14:16:43.645Z,14.83
2019-06-27T14:19:15.659Z,13.13
2019-06-27T14:21:47.915Z,14.60
2019-06-27T14:24:20.004Z,14.90
2019-06-27T14:26:52.061Z,14.17
2019-06-27T14:29:24.278Z,13.73
2019-06-27T14:31:56.208Z,13.83
2019-06-27T14:34:28.225Z,13.00
2019-06-27T14:37:00.266Z,13.37
2019-06-27T14:39:32.256Z,14.57
2019-06-27T14:42:04.419Z,13.63
2019-06-27T14:44:36.406Z,14.20
2019-06-27T14:47:08.550Z,14.20
2019-06-27T14:49:40.659Z,14.40
2019-06-27T14:52:12.781Z,13.80
2019-06-27T14:54:47.230Z,14.17
2019-06-27T14:57:18.423Z,12.43
2019-06-27T14:59:50.814Z,13.40
2019-06-27T15:02:22.985Z,13.27
2019-06-27T15:04:55.110Z,13.37
2019-06-27T15:07:27.215Z,13.10
2019-06-27T15:09:59.264Z,13.17
2019-06-27T15:12:31.361Z,12.43
2019-06-27T15:15:03.447Z,10.77
2019-06-27T15:17:35.605Z,11.00
2019-06-27T15:20:08.139Z,11.87
2019-06-27T15:22:40.176Z,11.57
2019-06-27T15:25:12.550Z,10.40
2019-06-27T15:27:44.672Z,10.67
2019-06-27T15:30:17.312Z,11.10
2019-06-27T15:32:49.568Z,10.17
2019-06-27T15:35:21.617Z,10.83
2019-06-27T15:37:53.764Z,10.93
2019-06-27T15:40:26.876Z,10.50
2019-06-27T15:42:58.775Z,11.17
2019-06-27T15:45:30.802Z,9.53
2019-06-27T15:48:02.793Z,9.17
2019-06-27T15:50:34.854Z,10.57
2019-06-27T15:53:06.926Z,9.87
2019-06-27T15:55:38.968Z,10.40
2019-06-27T15:58:10.976Z,9.90
2019-06-27T16:00:42.989Z,9.47
2019-06-27T16:03:14.965Z,9.53
2019-06-27T16:05:46.926Z,9.10
2019-06-27T16:08:20.073Z,8.73
2019-06-27T16:10:51.966Z,8.37
2019-06-27T16:13:24.917Z,7.70
2019-06-27T16:15:56.987Z,7.93
2019-06-27T16:18:29.093Z,7.40
2019-06-27T16:21:00.974Z,8.30
2019-06-27T16:23:33.003Z,7.97
2019-06-27T16:26:05.081Z,7.37
2019-06-27T16:28:37.084Z,8.13
2019-06-27T16:31:08.966Z,7.33
2019-06-27T16:33:40.997Z,6.60
2019-06-27T16:36:24.862Z,7.40
2019-06-27T16:38:46.746Z,6.83
2019-06-27T16:41:18.668Z,6.40
2019-06-27T16:43:50.693Z,6.80
2019-06-27T16:46:22.710Z,6.33
2019-06-27T16:48:54.817Z,6.30
2019-06-27T16:51:26.889Z,5.30
2019-06-27T16:53:58.857Z,7.10
2019-06-27T16:56:30.739Z,5.90
2019-06-27T16:59:02.811Z,6.20
2019-06-27T17:01:34.674Z,5.33
2019-06-27T17:04:07.663Z,6.03
2019-06-27T17:06:42.545Z,5.57
2019-06-27T17:09:13.446Z,5.03
2019-06-27T17:11:45.455Z,5.90
2019-06-27T17:14:17.542Z,5.17
2019-06-27T17:16:49.472Z,4.17
2019-06-27T17:19:21.405Z,4.80
2019-06-27T17:21:54.354Z,5.03
2019-06-27T17:24:26.551Z,4.83
2019-06-27T17:26:58.648Z,4.07
2019-06-27T17:29:30.595Z,4.33
2019-06-27T17:32:06.276Z,7.40
2019-06-27T17:34:36.280Z,5.53
2019-06-27T17:37:08.215Z,4.13
2019-06-27T17:39:40.292Z,3.90
2019-06-27T17:42:12.343Z,3.40
2019-06-27T17:44:44.203Z,3.53
2019-06-27T17:47:16.107Z,3.67
2019-06-27T17:49:49.191Z,3.20
2019-06-27T17:52:21.257Z,2.87
2019-06-27T17:54:53.237Z,3.17
2019-06-27T17:57:25.368Z,3.47
2019-06-27T17:59:57.424Z,2.87
2019-06-27T18:02:29.553Z,2.83
2019-06-27T18:05:01.640Z,3.17
2019-06-27T18:07:33.783Z,3.23
2019-06-27T18:10:06.865Z,3.07
2019-06-27T18:12:38.933Z,3.57
2019-06-27T18:15:11.932Z,3.00
2019-06-27T18:17:43.973Z,3.10
2019-06-27T18:20:16.315Z,3.43
2019-06-27T18:22:48.168Z,3.13
2019-06-27T18:25:20.148Z,3.50
2019-06-27T18:27:52.311Z,3.10
2019-06-27T18:30:24.372Z,3.17
2019-06-27T18:32:56.399Z,2.83
2019-06-27T18:35:28.663Z,3.27
2019-06-27T18:38:00.661Z,3.07
2019-06-27T18:40:33.465Z,3.33
2019-06-27T18:43:05.425Z,2.57
2019-06-27T18:45:37.604Z,2.70
2019-06-27T18:48:09.699Z,2.37
2019-06-27T18:50:41.885Z,3.00
2019-06-27T18:53:13.849Z,2.50
2019-06-27T18:55:46.153Z,2.90
2019-06-27T18:58:18.411Z,2.50
2019-06-27T19:00:50.783Z,2.63
2019-06-27T19:03:22.889Z,2.50
2019-06-27T19:05:54.896Z,3.00
2019-06-27T19:08:27.068Z,2.73
2019-06-27T19:10:59.062Z,2.57
2019-06-27T19:13:31.179Z,2.87
2019-06-27T19:16:03.160Z,2.77
2019-06-27T19:18:44.950Z,2.60
2019-06-27T19:21:22.828Z,2.63
2019-06-27T19:24:06.277Z,3.33
2019-06-27T19:26:38.225Z,2.23
2019-06-27T19:29:10.213Z,2.50
2019-06-27T19:31:42.142Z,2.43
2019-06-27T19:34:15.989Z,2.87
2019-06-27T19:36:48.090Z,2.73
2019-06-27T19:39:20.156Z,2.60
2019-06-27T19:41:52.484Z,2.73
2019-06-27T19:44:24.626Z,3.13
2019-06-27T19:46:56.856Z,2.60
2019-06-27T19:49:29.114Z,2.67
2019-06-27T19:52:01.188Z,2.10
2019-06-27T19:54:33.232Z,2.27
2019-06-27T19:57:05.252Z,2.70
2019-06-27T19:59:38.461Z,2.67
2019-06-27T20:02:10.528Z,3.00
2019-06-27T20:04:42.610Z,2.40
2019-06-27T20:07:15.611Z,2.60
2019-06-27T20:09:47.492Z,3.00
2019-06-27T20:12:19.698Z,3.30
2019-06-27T20:14:51.533Z,3.15
2019-06-27T20:17:23.575Z,2.58
2019-06-27T20:19:55.569Z,2.60
2019-06-27T20:22:27.581Z,2.25
2019-06-27T20:24:59.660Z,2.75
2019-06-27T20:27:31.732Z,2.35
2019-06-27T20:30:03.982Z,2.60
2019-06-27T20:32:35.940Z,2.50
2019-06-27T20:35:08.651Z,2.70
2019-06-27T20:37:40.961Z,2.22
2019-06-27T20:40:13.199Z,3.25
2019-06-27T20:42:45.386Z,2.35
2019-06-27T20:45:17.718Z,2.40
2019-06-27T20:47:51.563Z,2.40
2019-06-27T20:50:23.794Z,2.47
2019-06-27T20:52:56.108Z,2.30
2019-06-27T20:55:27.975Z,2.20
2019-06-27T20:58:00.013Z,2.42
2019-06-27T21:00:31.956Z,2.77
2019-06-27T21:03:04.115Z,2.20
2019-06-27T21:05:36.110Z,2.90
2019-06-27T21:08:08.024Z,2.30
2019-06-27T21:10:40.029Z,2.95
2019-06-27T21:13:12.207Z,2.92
2019-06-27T21:15:45.306Z,3.05
2019-06-27T21:18:17.342Z,2.58
2019-06-27T21:20:49.294Z,2.90
2019-06-27T21:23:22.313Z,2.92
2019-06-27T21:25:54.168Z,2.90
2019-06-27T21:28:26.244Z,2.75
2019-06-27T21:30:58.247Z,2.92
2019-06-27T21:33:30.977Z,2.70
2019-06-27T21:36:02.966Z,2.47
2019-06-27T21:38:35.025Z,2.80
2019-06-27T21:41:07.081Z,3.00
2019-06-27T21:43:38.959Z,3.02
2019-06-27T21:46:10.923Z,3.25
2019-06-27T21:48:43.032Z,2.80
2019-06-27T21:51:15.042Z,2.95
2019-06-27T21:53:47.052Z,3.30
2019-06-27T21:56:18.964Z,3.02
2019-06-27T21:58:50.772Z,2.90
2019-06-27T22:01:22.951Z,2.75
2019-06-27T22:03:54.955Z,3.00
2019-06-27T22:06:27.054Z,2.42
2019-06-27T22:08:59.004Z,3.15
2019-06-27T22:11:30.936Z,3.02
2019-06-27T22:14:02.943Z,2.47
2019-06-27T22:16:34.989Z,2.80
2019-06-27T22:19:07.406Z,2.67
2019-06-27T22:21:39.400Z,2.70
2019-06-27T22:24:11.409Z,2.85
2019-06-27T22:26:43.331Z,2.53
2019-06-27T22:29:15.411Z,2.60
2019-06-27T22:31:47.391Z,3.00
2019-06-27T22:34:19.452Z,3.00
2019-06-27T22:36:51.783Z,2.77
2019-06-27T22:39:42.820Z,2.80
2019-06-27T22:42:32.332Z,2.87
2019-06-27T22:45:21.652Z,2.80
2019-06-27T22:48:10.851Z,2.60
2019-06-27T22:51:13.174Z,2.92
2019-06-27T22:53:53.802Z,2.90
2019-06-27T22:56:25.817Z,3.40
2019-06-27T22:58:58.906Z,3.17
2019-06-27T23:01:30.880Z,2.77
2019-06-27T23:04:04.015Z,2.60
2019-06-27T23:06:36.032Z,3.10
2019-06-27T23:09:08.747Z,3.70
2019-06-27T23:11:40.751Z,2.70
2019-06-27T23:14:12.951Z,2.53
2019-06-27T23:16:44.880Z,3.05
2019-06-27T23:19:17.023Z,2.90
2019-06-27T23:21:49.061Z,2.90
2019-06-27T23:24:21.040Z,2.80
2019-06-27T23:26:53.042Z,2.90
2019-06-27T23:29:25.128Z,2.98
2019-06-27T23:31:57.099Z,3.15
2019-06-27T23:34:29.028Z,3.35
2019-06-27T23:37:00.943Z,3.20
2019-06-27T23:39:32.905Z,3.08
2019-06-27T23:42:04.877Z,3.25
2019-06-27T23:44:36.813Z,3.15
2019-06-27T23:47:08.869Z,3.20
2019-06-27T23:49:40.975Z,3.05
2019-06-27T23:52:12.997Z,2.85
2019-06-27T23:54:44.913Z,2.80
2019-06-27T23:57:17.013Z,3.05
2019-06-27T23:59:49.328Z,2.85
